Time;durP1;ratioP1;P1;durP2;ratioP2;P2;SDS_P1;SDS_P2;PMS_P1;PMS_P2;Temp;Humidity;BMP_temperature;BMP_pressure;BME280_temperature;BME280_humidity;BME280_pressure;Samples;Min_cycle;Max_cycle;Signal;HPM_P1;HPM_P2
2022/05/30 00:01:22;;;;;;;5.32;2.22;;;;;;;14.68;53.60;99235.38;7698103;32;38596;-74
2022/05/30 00:05:45;;;;;;;3.28;1.98;;;;;;;14.72;52.70;99233.63;7703752;32;37619;-75
2022/05/30 00:10:02;;;;;;;2.87;1.77;;;;;;;14.70;52.34;99232.34;7672343;32;39251;-74
2022/05/30 00:14:18;;;;;;;4.03;1.90;;;;;;;14.67;52.21;99228.28;7700310;32;40838;-74
2022/05/30 00:18:34;;;;;;;3.00;1.73;;;;;;;14.57;52.54;99217.50;7712001;32;38012;-75
2022/05/30 00:22:51;;;;;;;3.00;1.65;;;;;;;14.64;52.18;99218.75;7712118;32;36708;-74
2022/05/30 00:27:08;;;;;;;2.87;1.65;;;;;;;14.62;52.84;99225.66;7712073;32;40929;-74
2022/05/30 00:31:24;;;;;;;2.67;2.00;;;;;;;14.46;52.81;99220.50;7711906;32;39990;-74
2022/05/30 00:35:40;;;;;;;5.00;2.08;;;;;;;14.41;53.14;99225.31;7710724;32;39611;-74
2022/05/30 00:39:56;;;;;;;2.55;1.80;;;;;;;14.41;53.29;99215.16;7711937;32;37158;-74
2022/05/30 00:44:12;;;;;;;4.18;1.87;;;;;;;14.40;53.36;99209.97;7711760;32;38991;-74
2022/05/30 00:48:40;;;;;;;4.43;2.10;;;;;;;14.54;53.03;99209.91;7711782;32;40514;-74
2022/05/30 00:52:56;;;;;;;3.55;2.08;;;;;;;14.39;53.57;99205.63;7699645;32;37923;-74
2022/05/30 00:57:21;;;;;;;2.47;1.95;;;;;;;14.02;54.78;99202.09;7683967;32;37098;-75
2022/05/30 01:01:37;;;;;;;4.00;2.05;;;;;;;14.13;54.52;99192.53;7685033;32;39397;-74
2022/05/30 01:10:28;;;;;;;5.32;2.10;;;;;;;14.42;53.96;99186.63;7683926;32;37730;-75
2022/05/30 01:14:44;;;;;;;5.32;2.08;;;;;;;14.40;54.22;99188.03;7700117;32;37838;-73
2022/05/30 01:19:01;;;;;;;3.35;2.00;;;;;;;14.32;54.46;99175.91;7711334;32;38996;-75
2022/05/30 01:23:55;;;;;;;5.72;1.87;;;;;;;14.62;55.08;99171.59;7711394;32;40023;-74
2022/05/30 01:28:26;;;;;;;;;;;;;;;14.43;54.39;99168.22;7712083;32;38641;-75
2022/05/30 01:32:42;;;;;;;2.33;2.00;;;;;;;14.41;54.23;99160.31;7711468;32;37602;-75
2022/05/30 01:36:59;;;;;;;2.35;2.00;;;;;;;14.42;54.28;99161.13;7693060;32;39063;-74
2022/05/30 01:41:15;;;;;;;4.43;2.22;;;;;;;14.21;55.02;99167.12;7684340;32;39927;-75
2022/05/30 01:45:32;;;;;;;4.20;2.22;;;;;;;14.05;55.65;99161.16;7684223;32;38609;-74
2022/05/30 01:49:48;;;;;;;5.28;2.10;;;;;;;14.33;54.81;99158.34;7693840;32;38614;-74
2022/05/30 01:54:04;;;;;;;3.78;2.30;;;;;;;14.20;55.03;99154.53;7708407;32;40012;-74
2022/05/30 01:58:21;;;;;;;6.03;2.40;;;;;;;13.97;56.15;99166.56;7710859;32;40159;-75
2022/05/30 02:02:37;;;;;;;4.20;2.15;;;;;;;13.97;56.17;99161.09;7710537;32;37789;-74
2022/05/30 02:06:53;;;;;;;2.42;1.75;;;;;;;13.96;56.31;99164.97;7692648;32;38285;-75
2022/05/30 02:11:10;;;;;;;4.10;2.30;;;;;;;13.87;56.61;99162.97;7683972;32;39261;-74
2022/05/30 02:15:26;;;;;;;5.82;2.40;;;;;;;13.96;56.17;99171.25;7683486;32;41350;-74
2022/05/30 02:19:44;;;;;;;3.55;2.00;;;;;;;14.00;56.09;99163.22;7683774;32;37664;-74
2022/05/30 02:24:01;;;;;;;3.92;2.20;;;;;;;14.11;55.84;99170.09;7683777;32;37872;-74
2022/05/30 02:28:17;;;;;;;3.40;1.90;;;;;;;14.07;55.78;99169.09;7683610;32;39376;-75
2022/05/30 02:32:33;;;;;;;3.12;2.10;;;;;;;14.08;55.78;99168.78;7683482;32;40037;-75
2022/05/30 02:36:49;;;;;;;5.40;2.08;;;;;;;14.14;55.65;99166.72;7683349;32;37939;-75
2022/05/30 02:41:05;;;;;;;2.85;2.15;;;;;;;14.14;55.84;99160.44;7683823;32;37823;-74
2022/05/30 02:45:21;;;;;;;5.87;2.40;;;;;;;13.99;56.42;99175.31;7683277;32;39421;-74
2022/05/30 02:49:37;;;;;;;2.65;2.20;;;;;;;14.15;55.94;99184.78;7684541;32;39953;-74
2022/05/30 02:53:53;;;;;;;3.00;2.30;;;;;;;14.05;56.28;99187.78;7682933;32;38764;-76
2022/05/30 02:58:09;;;;;;;3.37;2.42;;;;;;;14.21;55.78;99188.22;7684437;32;37128;-75
2022/05/30 03:02:25;;;;;;;4.87;2.25;;;;;;;14.16;55.66;99194.66;7686342;32;40227;-75
2022/05/30 03:06:42;;;;;;;7.62;2.85;;;;;;;14.13;55.93;99211.72;7687888;32;39971;-74
2022/05/30 03:10:59;;;;;;;4.72;2.25;;;;;;;13.63;57.53;99218.00;7686249;32;38444;-74
2022/05/30 03:15:15;;;;;;;4.03;2.50;;;;;;;13.76;57.15;99210.88;7685053;32;37034;-74
2022/05/30 03:19:31;;;;;;;5.40;2.47;;;;;;;13.85;56.89;99214.53;7686203;32;40000;-74
2022/05/30 03:23:47;;;;;;;4.40;2.62;;;;;;;13.85;56.94;99216.47;7686207;32;39927;-74
2022/05/30 03:28:04;;;;;;;5.78;2.90;;;;;;;13.63;57.40;99225.41;7702328;32;37922;-74
2022/05/30 03:32:20;;;;;;;4.18;2.67;;;;;;;13.54;57.80;99236.28;7712707;32;37227;-74
2022/05/30 03:36:36;;;;;;;3.80;2.45;;;;;;;13.77;56.89;99239.91;7710763;32;40083;-74
2022/05/30 03:40:52;;;;;;;3.95;2.65;;;;;;;13.55;57.13;99240.63;7712293;32;40803;-74
2022/05/30 03:45:09;;;;;;;7.45;3.10;;;;;;;13.55;57.59;99243.34;7712548;32;38055;-74
2022/05/30 03:49:25;;;;;;;4.43;2.90;;;;;;;13.49;57.92;99242.66;7690635;32;37106;-75
2022/05/30 03:53:41;;;;;;;4.45;2.78;;;;;;;13.78;57.15;99236.06;7685875;32;39543;-74
2022/05/30 03:57:57;;;;;;;4.43;2.65;;;;;;;13.98;56.82;99236.72;7685711;32;40719;-74
2022/05/30 04:02:13;;;;;;;4.53;2.92;;;;;;;13.96;57.08;99236.22;7685503;32;37907;-74
2022/05/30 04:06:29;;;;;;;5.68;3.10;;;;;;;13.84;57.26;99244.97;7685617;32;37107;-74
2022/05/30 04:10:45;;;;;;;5.28;3.20;;;;;;;14.00;56.76;99237.22;7686212;32;39269;-74
2022/05/30 04:15:02;;;;;;;4.65;2.90;;;;;;;14.08;56.74;99236.50;7712153;32;40744;-74
2022/05/30 04:19:19;;;;;;;4.95;2.87;;;;;;;14.14;56.60;99212.50;7708718;32;37623;-74
2022/05/30 04:23:35;;;;;;;4.45;2.83;;;;;;;14.26;56.38;99224.56;7684209;32;37056;-75
2022/05/30 04:27:51;;;;;;;4.82;3.08;;;;;;;14.16;56.75;99224.81;7684253;32;39349;-74
2022/05/30 04:32:07;;;;;;;6.30;3.53;;;;;;;14.39;56.44;99228.38;7685421;32;39955;-75
2022/05/30 04:36:23;;;;;;;5.45;3.60;;;;;;;14.48;56.40;99220.19;7685249;32;38666;-74
2022/05/30 04:40:39;;;;;;;4.72;3.08;;;;;;;14.51;56.11;99227.00;7685130;32;37104;-74
2022/05/30 04:44:55;;;;;;;5.40;3.53;;;;;;;14.70;55.79;99240.56;7685359;32;39432;-75
2022/05/30 04:49:11;;;;;;;5.87;3.60;;;;;;;14.41;56.46;99242.56;7685180;32;41100;-74
2022/05/30 04:53:27;;;;;;;6.90;3.08;;;;;;;14.59;56.30;99227.09;7685035;32;37996;-74
2022/05/30 04:57:45;;;;;;;7.55;3.00;;;;;;;14.40;56.10;99237.41;7685046;32;38804;-74
2022/05/30 05:02:01;;;;;;;5.00;3.28;;;;;;;14.74;55.22;99247.03;7684960;32;39311;-74
2022/05/30 05:06:20;;;;;;;6.47;3.60;;;;;;;14.46;55.56;99252.63;7697106;32;40879;-75
2022/05/30 05:10:55;;;;;;;6.22;3.53;;;;;;;14.55;54.67;99248.00;7711478;32;37934;-76
2022/05/30 05:15:11;;;;;;;7.00;3.85;;;;;;;14.52;55.26;99254.13;7711526;32;37930;-73
2022/05/30 05:19:28;;;;;;;5.70;3.72;;;;;;;14.75;54.38;99263.19;7710953;32;39295;-74
2022/05/30 05:23:44;;;;;;;6.57;3.60;;;;;;;14.31;55.70;99261.19;7711267;32;40755;-75
2022/05/30 05:28:00;;;;;;;8.27;4.00;;;;;;;14.58;54.82;99263.03;7711240;32;37957;-75
2022/05/30 05:32:16;;;;;;;5.15;3.30;;;;;;;14.74;54.41;99269.00;7704450;32;37122;-75
2022/05/30 05:36:38;;;;;;;8.05;3.62;;;;;;;15.14;54.10;99258.09;7684444;32;39041;-74
2022/05/30 05:40:54;;;;;;;5.03;3.40;;;;;;;15.35;51.58;99266.56;7686991;32;40794;-75
2022/05/30 05:45:10;;;;;;;7.55;3.28;;;;;;;15.12;53.32;99287.78;7684309;32;37934;-75
2022/05/30 05:49:26;;;;;;;4.80;3.22;;;;;;;15.11;54.29;99295.22;7686680;32;36727;-75
2022/05/30 05:53:42;;;;;;;6.03;3.42;;;;;;;15.36;54.17;99301.16;7711003;32;39800;-74
2022/05/30 05:57:58;;;;;;;5.22;3.10;;;;;;;15.16;54.05;99297.84;7710878;32;39737;-75
2022/05/30 06:02:14;;;;;;;7.65;3.62;;;;;;;15.27;53.20;99306.63;7698977;32;37853;-75
2022/05/30 06:06:31;;;;;;;9.48;3.25;;;;;;;15.31;52.59;99306.78;7682627;32;36744;-75
2022/05/30 06:11:11;;;;;;;4.15;2.80;;;;;;;15.57;51.90;99320.66;7686480;32;39377;-82
2022/05/30 06:15:29;;;;;;;3.85;2.60;;;;;;;15.74;52.31;99309.72;7680688;32;39953;-83
2022/05/30 06:19:47;;;;;;;7.72;2.97;;;;;;;15.87;52.28;99312.72;7708065;32;37995;-76
2022/05/30 06:24:05;;;;;;;9.50;3.17;;;;;;;16.35;50.73;99317.38;7694061;32;37283;-76
2022/05/30 06:28:22;;;;;;;4.05;3.10;;;;;;;16.12;50.87;99320.22;7708814;32;38374;-76
2022/05/30 06:32:38;;;;;;;6.85;2.50;;;;;;;15.76;52.21;99318.50;7710039;32;39938;-75
2022/05/30 06:36:54;;;;;;;5.22;2.87;;;;;;;15.80;52.27;99318.69;7713041;32;37579;-76
2022/05/30 06:41:23;;;;;;;12.80;3.60;;;;;;;16.42;51.19;99322.34;7713076;32;36764;-77
2022/05/30 06:45:47;;;;;;;5.35;2.65;;;;;;;16.47;50.23;99330.47;7713284;32;39367;-80
2022/05/30 06:50:04;;;;;;;6.20;2.72;;;;;;;16.39;51.50;99334.03;7703715;32;40904;-77
2022/05/30 06:54:21;;;;;;;9.68;2.72;;;;;;;16.48;48.90;99343.91;7686331;32;37526;-74
2022/05/30 06:58:37;;;;;;;8.23;2.80;;;;;;;16.59;48.04;99344.41;7686348;32;37126;-73
2022/05/30 07:02:53;;;;;;;5.60;2.80;;;;;;;16.83;49.17;99338.44;7686223;32;39400;-75
2022/05/30 07:07:09;;;;;;;7.85;2.85;;;;;;;16.57;48.30;99351.34;7708443;32;39925;-75
2022/05/30 07:11:25;;;;;;;4.25;2.50;;;;;;;16.36;49.22;99351.16;7712909;32;38142;-75
2022/05/30 07:15:42;;;;;;;5.30;3.10;;;;;;;16.80;48.46;99357.50;7703855;32;37048;-75
2022/05/30 07:19:58;;;;;;;4.30;2.85;;;;;;;16.31;49.39;99357.62;7708302;32;39471;-75
2022/05/30 07:24:14;;;;;;;14.95;3.28;;;;;;;16.49;50.12;99355.72;7711970;32;39936;-75
2022/05/30 07:28:30;;;;;;;5.57;2.90;;;;;;;16.76;48.96;99364.81;7711405;32;37827;-75
2022/05/30 07:32:46;;;;;;;4.72;2.85;;;;;;;16.24;50.43;99365.53;7711907;32;37789;-74
2022/05/30 07:37:02;;;;;;;5.18;2.62;;;;;;;16.60;49.88;99350.72;7711725;32;39068;-75
2022/05/30 07:41:18;;;;;;;10.57;2.80;;;;;;;16.79;49.59;99364.97;7711171;32;40756;-75
2022/05/30 07:45:34;;;;;;;5.03;2.83;;;;;;;16.96;49.52;99366.94;7710829;32;37655;-75
2022/05/30 07:49:50;;;;;;;6.50;2.72;;;;;;;17.20;47.19;99363.66;7710687;32;37834;-75
2022/05/30 07:54:06;;;;;;;3.65;2.65;;;;;;;16.94;46.79;99376.66;7701369;32;39807;-76
2022/05/30 07:58:22;;;;;;;5.75;2.50;;;;;;;17.04;46.73;99366.13;7684981;32;40646;-76
2022/05/30 08:02:39;;;;;;;6.15;2.58;;;;;;;17.11;46.64;99375.81;7697517;32;37550;-76
2022/05/30 08:07:03;;;;;;;3.92;2.35;;;;;;;17.19;47.40;99373.06;7708088;32;37030;-76
2022/05/30 08:11:21;;;;;;;4.80;2.90;;;;;;;17.13;46.17;99382.63;7709896;32;39016;-75
2022/05/30 08:15:37;;;;;;;5.10;2.97;;;;;;;17.29;45.25;99376.63;7710289;32;40062;-75
2022/05/30 08:19:53;;;;;;;5.00;2.85;;;;;;;17.30;47.11;99375.47;7709296;32;38015;-76
2022/05/30 08:24:09;;;;;;;9.65;3.00;;;;;;;17.21;45.84;99378.25;7710549;32;37192;-75
2022/05/30 08:28:25;;;;;;;5.15;2.58;;;;;;;17.24;46.41;99375.66;7710518;32;40117;-75
2022/05/30 08:32:42;;;;;;;5.00;2.80;;;;;;;17.75;44.14;99373.09;7707412;32;40805;-76
2022/05/30 08:37:01;;;;;;;6.40;2.37;;;;;;;18.15;43.90;99369.22;7710374;32;37541;-76
2022/05/30 08:46:05;;;;;;;3.72;2.37;;;;;;;18.20;39.95;99371.78;7684101;32;39297;-74
2022/05/30 08:50:30;;;;;;;3.22;2.05;;;;;;;18.17;41.47;99369.69;7687881;32;39567;-74
2022/05/30 08:54:54;;;;;;;8.60;1.95;;;;;;;18.72;40.06;99354.88;7707991;32;38255;-74
2022/05/30 08:59:16;;;;;;;6.40;2.40;;;;;;;18.63;40.10;99354.16;7708655;32;36783;-74
2022/05/30 09:04:06;;;;;;;5.37;2.15;;;;;;;18.69;40.44;99366.59;7710519;32;38994;-75
2022/05/30 09:08:27;;;;;;;5.03;1.73;;;;;;;18.60;40.44;99367.81;7690238;32;40788;-75
2022/05/30 09:12:46;;;;;;;3.83;1.62;;;;;;;18.92;39.33;99363.50;7690594;32;38759;-75
2022/05/30 09:17:05;;;;;;;5.10;2.45;;;;;;;18.93;38.51;99368.69;7711077;32;37709;-76
2022/05/30 09:21:26;;;;;;;3.22;1.20;;;;;;;18.99;36.21;99380.38;7709222;32;39930;-76
2022/05/30 09:26:07;;;;;;;5.37;1.45;;;;;;;18.91;37.20;99375.72;7711037;32;40105;-76
2022/05/30 09:30:30;;;;;;;3.05;1.42;;;;;;;19.33;36.42;99372.88;7682558;32;38714;-75
2022/05/30 09:34:49;;;;;;;1.92;1.37;;;;;;;19.66;37.49;99380.34;7691646;32;37164;-74
2022/05/30 09:39:17;;;;;;;3.80;1.30;;;;;;;18.96;38.47;99392.09;7706626;32;39142;-74
2022/05/30 09:43:46;;;;;;;3.60;1.50;;;;;;;18.82;36.24;99386.00;7706187;32;39725;-75
2022/05/30 09:48:13;;;;;;;3.78;1.75;;;;;;;19.10;37.71;99395.38;7708368;32;37656;-74
2022/05/30 09:52:38;;;;;;;5.18;1.90;;;;;;;19.11;38.45;99393.44;7706677;32;36829;-75
2022/05/30 09:57:00;;;;;;;5.00;1.55;;;;;;;18.91;37.65;99400.56;7710834;32;40152;-75
2022/05/30 10:01:27;;;;;;;6.85;1.83;;;;;;;19.36;38.70;99408.13;7709694;32;40024;-76
2022/05/30 10:05:43;;;;;;;4.95;1.75;;;;;;;19.24;38.48;99408.91;7703076;32;38743;-76
2022/05/30 10:10:02;;;;;;;5.07;2.00;;;;;;;19.06;39.12;99422.06;7710794;32;36788;-75
2022/05/30 10:14:21;;;;;;;5.12;1.98;;;;;;;19.05;38.42;99431.50;7709284;32;39546;-77
2022/05/30 10:18:59;;;;;;;3.12;1.73;;;;;;;18.92;39.62;99425.09;7691331;32;40832;-76
2022/05/30 10:28:41;;;;;;;4.85;1.85;;;;;;;19.30;36.29;99413.09;7696134;32;37858;-76
2022/05/30 10:33:09;;;;;;;4.50;2.22;;;;;;;18.90;38.08;99434.84;7697849;32;39869;-76
2022/05/30 10:38:11;;;;;;;5.78;1.80;;;;;;;19.03;37.53;99428.25;7684883;32;38980;-77
2022/05/30 10:42:32;;;;;;;2.90;1.90;;;;;;;19.10;37.45;99417.47;7678869;32;37687;-76
2022/05/30 10:47:51;;;;;;;3.42;1.73;;;;;;;18.60;38.82;99407.25;7691793;32;37884;-76
2022/05/30 10:52:34;;;;;;;2.62;1.67;;;;;;;18.71;38.12;99408.50;7694058;32;37759;-75
2022/05/30 10:56:52;;;;;;;3.60;1.77;;;;;;;19.10;36.15;99420.22;7709318;32;39990;-76
2022/05/30 11:01:29;;;;;;;3.20;1.60;;;;;;;18.87;37.63;99422.53;7708282;32;38355;-75
2022/05/30 11:06:09;;;;;;;4.78;1.58;;;;;;;19.05;37.79;99422.41;7708423;32;37037;-76
2022/05/30 11:10:34;;;;;;;14.90;1.98;;;;;;;19.22;35.95;99427.78;7709341;32;40112;-75
2022/05/30 11:15:11;;;;;;;4.28;1.52;;;;;;;19.25;37.52;99431.84;7709281;32;40835;-76
2022/05/30 11:20:00;;;;;;;1.90;1.50;;;;;;;18.92;36.77;99427.03;7707497;32;38938;-76
2022/05/30 11:24:17;;;;;;;7.35;1.67;;;;;;;18.87;35.46;99441.06;7708249;32;36755;-76
2022/05/30 11:28:49;;;;;;;3.62;1.70;;;;;;;19.26;35.71;99411.31;7709034;32;40096;-75
2022/05/30 11:33:32;;;;;;;4.53;1.25;;;;;;;18.87;34.90;99433.59;7710790;32;40817;-75
2022/05/30 11:38:18;;;;;;;5.18;1.75;;;;;;;19.14;35.77;99436.94;7712639;32;38658;-75
2022/05/30 11:42:44;;;;;;;2.58;1.75;;;;;;;19.21;35.44;99437.19;7712719;32;37211;-75
2022/05/30 11:47:25;;;;;;;4.60;1.98;;;;;;;19.11;35.09;99426.59;7710995;32;39564;-75
2022/05/30 11:52:00;;;;;;;2.15;1.60;;;;;;;19.35;35.93;99423.13;7711509;32;39866;-75
2022/05/30 11:56:26;;;;;;;2.78;1.48;;;;;;;19.16;35.64;99420.81;7711260;32;38040;-76
2022/05/30 12:00:49;;;;;;;4.80;1.50;;;;;;;18.66;35.19;99428.03;7712556;32;36768;-76
2022/05/30 12:05:22;;;;;;;5.97;1.33;;;;;;;18.65;35.38;99423.63;7711196;32;39397;-76
2022/05/30 12:10:17;;;;;;;5.35;2.22;;;;;;;19.13;33.85;99419.56;7711046;32;40821;-76
2022/05/30 12:14:54;;;;;;;4.62;1.73;;;;;;;19.08;34.94;99422.53;7712134;32;37893;-75
2022/05/30 12:24:11;;;;;;;2.60;1.75;;;;;;;19.39;35.34;99410.22;7679989;32;40192;-75
2022/05/30 12:28:28;;;;;;;4.65;1.65;;;;;;;19.29;35.19;99413.41;7685773;32;38409;-74
2022/05/30 12:32:46;;;;;;;5.57;1.58;;;;;;;18.88;37.19;99423.34;7684487;32;37999;-75
2022/05/30 12:37:02;;;;;;;1.92;1.58;;;;;;;19.21;36.45;99408.78;7684246;32;37059;-75
2022/05/30 12:41:25;;;;;;;2.60;1.70;;;;;;;19.41;36.63;99413.47;7685118;32;40070;-76
2022/05/30 12:45:57;;;;;;;3.20;1.40;;;;;;;19.57;35.07;99415.59;7684081;32;40766;-73
2022/05/30 12:50:32;;;;;;;2.50;1.40;;;;;;;19.37;34.23;99420.00;7685222;32;37995;-75
2022/05/30 12:55:11;;;;;;;3.50;1.40;;;;;;;18.87;35.34;99411.50;7680333;32;156095;-74
2022/05/30 12:59:33;;;;;;;2.97;1.62;;;;;;;19.29;35.40;99408.69;7686351;32;40042;-75
2022/05/30 13:04:29;;;;;;;5.15;1.67;;;;;;;19.14;34.79;99410.12;7698902;32;39835;-76
2022/05/30 13:09:15;;;;;;;2.08;1.35;;;;;;;19.68;34.42;99414.00;7711617;32;38648;-75
2022/05/30 13:13:31;;;;;;;2.78;1.60;;;;;;;19.62;33.70;99412.59;7710545;32;37190;-76
2022/05/30 13:18:03;;;;;;;2.47;1.55;;;;;;;20.02;33.55;99407.31;7697545;32;39266;-76
2022/05/30 13:22:36;;;;;;;2.30;1.33;;;;;;;20.16;33.49;99406.97;7687135;32;39920;-75
2022/05/30 13:26:52;;;;;;;3.75;1.60;;;;;;;20.35;33.27;99408.31;7673418;32;38811;-76
2022/05/30 13:31:11;;;;;;;4.53;1.92;;;;;;;20.38;33.07;99421.47;7684819;32;37832;-75
2022/05/30 13:35:31;;;;;;;6.72;1.62;;;;;;;20.70;33.27;99427.25;7702630;32;39240;-75
2022/05/30 13:39:49;;;;;;;2.90;1.45;;;;;;;20.72;33.31;99430.47;7703243;32;39936;-76
2022/05/30 13:44:10;;;;;;;3.95;1.40;;;;;;;20.82;32.31;99435.53;7690167;32;38728;-76
2022/05/30 13:48:36;;;;;;;2.70;1.30;;;;;;;20.94;32.67;99438.28;7682426;32;38576;-76
2022/05/30 13:52:52;;;;;;;2.37;1.45;;;;;;;20.89;32.50;99441.28;7700733;32;40068;-75
2022/05/30 13:57:10;;;;;;;1.60;1.12;;;;;;;21.14;31.26;99430.13;7699342;32;39577;-74
2022/05/30 14:01:36;;;;;;;1.92;1.25;;;;;;;21.13;31.43;99440.44;7682421;32;37679;-74
2022/05/30 14:05:52;;;;;;;6.78;1.42;;;;;;;21.08;30.27;99442.66;7682854;32;36844;-75
2022/05/30 14:10:11;;;;;;;3.37;1.50;;;;;;;21.84;30.71;99434.47;7698696;32;39284;-76
2022/05/30 14:14:48;;;;;;;2.20;1.10;;;;;;;22.63;28.88;99442.00;7708116;32;40322;-72
2022/05/30 14:19:25;;;;;;;2.95;1.02;;;;;;;23.33;28.39;99423.66;7708714;32;38664;-76
2022/05/30 14:23:41;;;;;;;1.37;1.10;;;;;;;23.14;25.51;99432.81;7708508;32;37120;-75
2022/05/30 14:27:57;;;;;;;3.20;1.15;;;;;;;22.55;26.90;99443.78;7696092;32;39530;-75
2022/05/30 14:32:19;;;;;;;1.52;1.10;;;;;;;22.30;27.81;99430.13;7709628;32;39902;-75
2022/05/30 14:36:39;;;;;;;5.68;1.40;;;;;;;21.68;27.24;99438.03;7709292;32;37902;-76
2022/05/30 14:41:02;;;;;;;2.40;0.90;;;;;;;21.94;26.95;99428.41;7708213;32;37871;-75
2022/05/30 14:45:42;;;;;;;2.58;0.98;;;;;;;22.02;28.31;99424.63;7709023;32;39062;-75
2022/05/30 14:50:11;;;;;;;2.22;1.27;;;;;;;22.38;27.18;99430.28;7709314;32;39453;-76
2022/05/30 14:54:51;;;;;;;1.90;0.98;;;;;;;22.02;28.22;99423.81;7709381;32;38652;-76
2022/05/30 14:59:27;;;;;;;2.05;1.52;;;;;;;22.15;27.67;99416.22;7684642;32;37915;-75
2022/05/30 15:08:18;;;;;;;5.10;1.40;;;;;;;20.84;30.18;99422.16;7686193;32;40208;-75
2022/05/30 15:12:35;;;;;;;1.83;1.20;;;;;;;21.87;32.01;99420.69;7703228;32;37645;-74
2022/05/30 15:16:51;;;;;;;2.90;1.25;;;;;;;22.58;28.54;99411.72;7712828;32;36992;-74
2022/05/30 15:21:14;;;;;;;3.12;1.40;;;;;;;22.45;28.02;99414.59;7712285;32;39389;-75
2022/05/30 15:25:30;;;;;;;;;;;;;;;23.13;27.44;99414.50;7712185;32;40057;-74
2022/05/30 15:29:47;;;;;;;2.53;1.08;;;;;;;23.43;26.78;99417.50;7712430;32;37874;-75
2022/05/30 15:34:03;;;;;;;2.90;1.20;;;;;;;23.57;27.10;99417.78;7711611;32;37569;-74
2022/05/30 15:38:19;;;;;;;2.35;1.23;;;;;;;23.84;26.75;99415.13;7707171;32;39848;-75
2022/05/30 15:42:49;;;;;;;3.45;1.48;;;;;;;24.16;26.69;99409.28;7695793;32;40952;-75
2022/05/30 15:47:11;;;;;;;3.60;1.20;;;;;;;24.61;26.35;99418.78;7684378;32;38264;-74
2022/05/30 15:51:27;;;;;;;1.58;1.00;;;;;;;23.49;27.48;99421.59;7685367;32;36943;-79
2022/05/30 16:00:21;;;;;;;2.45;1.20;;;;;;;23.95;27.22;99418.88;7685319;32;41236;-72
2022/05/30 16:04:38;;;;;;;3.35;1.37;;;;;;;23.56;28.15;99421.75;7684757;32;38821;-72
2022/05/30 16:08:56;;;;;;;2.78;1.25;;;;;;;22.98;28.51;99432.84;7685582;32;36963;-72
2022/05/30 16:13:14;;;;;;;4.65;1.65;;;;;;;23.19;28.64;99424.97;7701623;32;40214;-71
2022/05/30 16:17:31;;;;;;;2.92;1.20;;;;;;;23.16;28.50;99431.28;7710701;32;38975;-72
2022/05/30 16:21:52;;;;;;;2.97;1.35;;;;;;;22.76;29.35;99424.03;7711915;32;38188;-73
2022/05/30 16:26:19;;;;;;;2.17;1.10;;;;;;;22.78;29.54;99432.78;7711415;32;37791;-73
2022/05/30 16:30:36;;;;;;;1.80;1.00;;;;;;;22.66;29.47;99435.69;7700134;32;39480;-73
2022/05/30 16:34:52;;;;;;;2.47;1.25;;;;;;;22.45;30.38;99442.38;7686961;32;39871;-73
2022/05/30 16:39:10;;;;;;;4.00;1.48;;;;;;;22.01;31.02;99444.41;7692070;32;38092;-72
2022/05/30 16:43:27;;;;;;;1.75;1.20;;;;;;;21.92;31.47;99442.63;7700353;32;37827;-73
2022/05/30 16:47:45;;;;;;;3.53;1.27;;;;;;;21.87;30.98;99450.38;7704281;32;39413;-72
2022/05/30 16:52:02;;;;;;;5.82;1.73;;;;;;;22.23;29.91;99451.31;7686637;32;39342;-73
2022/05/30 16:56:18;;;;;;;2.45;1.17;;;;;;;22.30;30.64;99457.88;7696486;32;38013;-72
2022/05/30 17:00:39;;;;;;;5.30;1.10;;;;;;;21.62;31.50;99456.06;7698314;32;35643;-73
2022/05/30 17:04:56;;;;;;;4.55;1.37;;;;;;;22.09;31.20;99460.09;7692202;32;40116;-72
2022/05/30 17:09:20;;;;;;;4.28;1.10;;;;;;;21.86;31.81;99471.00;7706935;32;39595;-72
2022/05/30 17:13:38;;;;;;;3.10;1.10;;;;;;;21.59;31.81;99467.87;7695226;32;38719;-72
2022/05/30 17:17:54;;;;;;;1.12;1.02;;;;;;;21.46;32.14;99467.13;7697001;32;37277;-72
2022/05/30 17:22:11;;;;;;;2.17;0.90;;;;;;;21.53;32.09;99475.66;7711254;32;39443;-73
2022/05/30 17:31:07;;;;;;;1.70;1.10;;;;;;;21.45;32.21;99461.91;7690875;32;37950;-72
2022/05/30 17:35:24;;;;;;;4.35;0.85;;;;;;;21.63;32.00;99465.19;7699125;32;37789;-73
2022/05/30 17:39:40;;;;;;;1.67;1.00;;;;;;;21.53;31.39;99474.84;7703026;32;40190;-73
2022/05/30 17:43:56;;;;;;;1.87;1.20;;;;;;;21.70;32.30;99469.00;7689200;32;40884;-73
2022/05/30 17:48:17;;;;;;;8.40;1.25;;;;;;;21.49;32.24;99485.03;7699748;32;37854;-80
2022/05/30 17:52:48;;;;;;;1.00;1.00;;;;;;;21.32;33.36;99491.66;7698054;32;37892;-75
2022/05/30 17:57:08;;;;;;;1.42;1.20;;;;;;;21.23;33.29;99494.56;7706157;32;40318;-75
2022/05/30 18:01:24;;;;;;;4.62;1.00;;;;;;;21.01;34.02;99491.13;7707344;32;39616;-75
2022/05/30 18:05:41;;;;;;;5.07;1.70;;;;;;;20.66;35.72;99495.56;7709113;32;37571;-75
2022/05/30 18:10:14;;;;;;;4.03;1.37;;;;;;;20.65;35.81;99496.72;7699346;32;36938;-75
2022/05/30 18:14:51;;;;;;;6.97;1.55;;;;;;;20.52;36.04;99498.66;7693416;32;39009;-75
2022/05/30 18:19:39;;;;;;;3.45;1.52;;;;;;;20.58;36.42;99502.81;7695640;32;39827;-74
2022/05/30 18:24:44;;;;;;;3.47;1.30;;;;;;;20.38;36.94;99504.53;7708438;32;38739;-75
2022/05/30 18:29:03;;;;;;;3.65;1.35;;;;;;;20.14;37.58;99517.16;7729831;32;36945;-74
2022/05/30 18:33:52;;;;;;;5.20;1.40;;;;;;;19.94;38.56;99527.16;7713651;32;39933;-75
2022/05/30 18:38:31;;;;;;;6.30;2.47;;;;;;;19.76;39.40;99526.50;7708066;32;39475;-75
2022/05/30 18:43:15;;;;;;;7.10;2.37;;;;;;;19.85;39.47;99538.31;7694501;32;37670;-74
2022/05/30 18:47:35;;;;;;;6.55;2.50;;;;;;;19.46;40.70;99548.69;7701656;32;37841;-75
2022/05/30 18:52:11;;;;;;;4.40;2.00;;;;;;;19.28;41.34;99553.56;7693724;32;40537;-75
2022/05/30 18:56:47;;;;;;;3.42;2.05;;;;;;;19.24;41.65;99560.09;7689282;32;39877;-73
2022/05/30 19:01:04;;;;;;;7.05;1.85;;;;;;;19.11;42.47;99571.06;7701979;32;37820;-74
2022/05/30 19:05:21;;;;;;;5.95;1.70;;;;;;;19.06;42.65;99574.00;7695956;32;36783;-74
2022/05/30 19:09:37;;;;;;;2.65;1.70;;;;;;;18.93;43.07;99575.84;7702431;32;39006;-74
2022/05/30 19:14:11;;;;;;;3.70;1.70;;;;;;;18.90;43.14;99576.53;7696162;32;39935;-74
2022/05/30 19:18:48;;;;;;;5.78;1.70;;;;;;;18.79;43.96;99583.53;7685951;32;37925;-74
2022/05/30 19:23:05;;;;;;;2.55;1.90;;;;;;;18.66;44.58;99601.12;7707835;32;35571;-74
2022/05/30 19:27:24;;;;;;;5.65;1.80;;;;;;;18.54;44.15;99601.81;7707506;32;39260;-74
2022/05/30 19:31:43;;;;;;;1.98;1.42;;;;;;;18.49;43.99;99604.75;7705843;32;40706;-75
2022/05/30 19:35:59;;;;;;;4.70;1.70;;;;;;;18.26;45.25;99610.50;7693730;32;38773;-75
2022/05/30 19:40:17;;;;;;;4.53;1.80;;;;;;;18.48;44.45;99619.72;7688103;32;37186;-74
2022/05/30 19:44:33;;;;;;;2.83;1.77;;;;;;;18.33;45.14;99618.28;7695066;32;39994;-74
2022/05/30 19:48:52;;;;;;;2.83;1.77;;;;;;;18.34;45.37;99615.19;7696039;32;39811;-74
2022/05/30 19:53:12;;;;;;;1.48;1.33;;;;;;;18.39;45.33;99626.06;7702346;32;37110;-74
2022/05/30 19:57:28;;;;;;;4.57;1.60;;;;;;;18.09;46.55;99621.56;7707662;32;37777;-74
2022/05/30 20:01:45;;;;;;;1.67;1.58;;;;;;;18.18;46.17;99620.41;7701570;32;39481;-74
2022/05/30 20:06:01;;;;;;;5.00;1.75;;;;;;;18.20;46.33;99625.63;7695762;32;39845;-74
2022/05/30 20:10:20;;;;;;;2.47;1.67;;;;;;;18.12;46.74;99618.16;7693573;32;37914;-75
2022/05/30 20:14:36;;;;;;;3.37;1.62;;;;;;;18.12;46.72;99623.66;7684747;32;35987;-75
2022/05/30 20:18:51;;;;;;;6.07;1.83;;;;;;;18.05;47.09;99628.88;7690742;32;40159;-75
2022/05/30 20:23:07;;;;;;;5.68;1.92;;;;;;;18.09;46.96;99630.66;7710751;32;39833;-75
2022/05/30 20:27:24;;;;;;;3.83;1.90;;;;;;;18.03;47.18;99637.47;7711130;32;38734;-75
2022/05/30 20:31:41;;;;;;;3.55;1.70;;;;;;;17.90;48.19;99650.31;7710778;32;37076;-75
2022/05/30 20:35:58;;;;;;;7.35;2.10;;;;;;;17.85;48.35;99650.44;7709698;32;39418;-75
2022/05/30 20:43:02;;;;;;;3.10;1.67;;;;;;;17.81;48.46;99657.72;7710873;32;40018;-75
2022/05/30 20:44:53;;;;;;;3.67;1.85;;;;;;;17.76;48.70;99652.34;7710635;32;37949;-75
2022/05/30 20:49:09;;;;;;;4.43;1.77;;;;;;;17.72;48.75;99665.16;7711310;32;37256;-72
2022/05/30 20:53:25;;;;;;;2.53;1.77;;;;;;;17.65;49.13;99660.94;7709947;32;38879;-74
2022/05/30 20:57:41;;;;;;;5.82;1.87;;;;;;;17.61;48.90;99662.72;7710282;32;39900;-74
2022/05/30 21:01:57;;;;;;;2.80;1.65;;;;;;;17.61;48.93;99665.47;7710570;32;38707;-74
2022/05/30 21:06:14;;;;;;;4.22;1.48;;;;;;;17.58;49.25;99655.09;7710551;32;37428;-73